Time;durP1;ratioP1;P1;durP2;ratioP2;P2;SDS_P1;SDS_P2;PMS_P1;PMS_P2;Temp;Humidity;BMP_temperature;BMP_pressure;BME280_temperature;BME280_humidity;BME280_pressure;Samples;Min_cycle;Max_cycle;Signal;HPM_P1;HPM_P2
2024/04/13 00:01:36;;;;;;;;;;;;;;;18.47;41.24;101709.13;5235330;26;94448;-78
2024/04/13 00:04:03;;;;;;;;;;;;;;;18.45;41.25;101712.16;5233127;26;94376;-78
2024/04/13 00:06:29;;;;;;;;;;;;;;;18.43;41.30;101721.72;5234379;26;94386;-78
2024/04/13 00:08:55;;;;;;;;;;;;;;;18.42;41.15;101728.28;5237615;26;94607;-78
2024/04/13 00:11:23;;;;;;;;;;;;;;;18.39;41.40;101721.50;5205413;26;96031;-78
2024/04/13 00:13:51;;;;;;;;;;;;;;;18.38;41.53;101717.16;5232600;26;95363;-70
2024/04/13 00:16:19;;;;;;;;;;;;;;;18.36;41.42;101712.00;5263173;26;94870;-70
2024/04/13 00:18:47;;;;;;;;;;;;;;;18.35;41.31;101710.38;5262294;26;94458;-70
2024/04/13 00:21:16;;;;;;;;;;;;;;;18.33;41.53;101712.56;5256007;26;94475;-78
2024/04/13 00:23:42;;;;;;;;;;;;;;;18.31;41.42;101713.94;5229148;26;94973;-70
2024/04/13 00:26:11;;;;;;;;;;;;;;;18.29;41.21;101708.78;5235047;26;94417;-78
2024/04/13 00:28:39;;;;;;;;;;;;;;;18.28;41.16;101698.97;5204297;26;97660;-70
2024/04/13 00:31:07;;;;;;;;;;;;;;;18.26;41.64;101709.34;5263682;26;95059;-77
2024/04/13 00:33:38;;;;;;;;;;;;;;;18.25;41.29;101713.19;5255735;26;96989;-70
2024/04/13 00:36:05;;;;;;;;;;;;;;;18.23;41.51;101715.38;5210709;26;95563;-70
2024/04/13 00:38:34;;;;;;;;;;;;;;;18.27;41.54;101712.88;5206454;26;94789;-70
2024/04/13 00:41:01;;;;;;;;;;;;;;;18.33;41.22;101719.94;5212318;26;94258;-70
2024/04/13 00:43:28;;;;;;;;;;;;;;;18.38;41.68;101707.03;5234034;26;95460;-71
2024/04/13 00:45:55;;;;;;;;;;;;;;;18.42;41.47;101710.00;5234906;26;95351;-70
2024/04/13 00:48:23;;;;;;;;;;;;;;;18.44;41.40;101710.53;5202253;26;95831;-78
2024/04/13 00:50:59;;;;;;;;;;;;;;;18.47;41.63;101720.03;5253344;26;95083;-78
2024/04/13 00:53:26;;;;;;;;;;;;;;;18.46;41.47;101711.03;5256337;26;95183;-78
2024/04/13 00:55:53;;;;;;;;;;;;;;;18.48;41.44;101711.59;5257567;26;94667;-78
2024/04/13 00:58:26;;;;;;;;;;;;;;;18.49;41.35;101713.19;5234852;26;94666;-70
2024/04/13 01:00:57;;;;;;;;;;;;;;;18.49;41.45;101707.75;5258735;26;96852;-70
2024/04/13 01:03:26;;;;;;;;;;;;;;;18.50;41.57;101716.75;5232558;26;94482;-70
2024/04/13 01:05:53;;;;;;;;;;;;;;;18.49;41.68;101724.13;5224366;26;97467;-78
2024/04/13 01:08:20;;;;;;;;;;;;;;;18.47;41.57;101729.06;5199160;26;94529;-70
2024/04/13 01:10:47;;;;;;;;;;;;;;;18.46;41.63;101721.97;5223898;26;98299;-70
2024/04/13 01:13:14;;;;;;;;;;;;;;;18.45;41.42;101722.25;5257820;26;94294;-70
2024/04/13 01:15:41;;;;;;;;;;;;;;;18.44;41.81;101721.47;5254716;26;94508;-70
2024/04/13 01:18:10;;;;;;;;;;;;;;;18.42;41.75;101723.66;5237123;26;95007;-70
2024/04/13 01:20:39;;;;;;;;;;;;;;;18.42;41.62;101722.84;5238171;26;94910;-70
2024/04/13 01:23:11;;;;;;;;;;;;;;;18.38;41.63;101720.69;5253378;26;99986;-78
2024/04/13 01:25:38;;;;;;;;;;;;;;;18.37;41.89;101720.97;5253005;26;96886;-78
2024/04/13 01:28:05;;;;;;;;;;;;;;;18.35;41.84;101714.97;5264770;26;94684;-77
2024/04/13 01:30:31;;;;;;;;;;;;;;;18.33;41.42;101706.28;5223195;26;94452;-70
2024/04/13 01:33:00;;;;;;;;;;;;;;;18.32;41.71;101712.84;5281644;26;94830;-70
2024/04/13 01:35:26;;;;;;;;;;;;;;;18.30;41.59;101706.88;5256025;26;94317;-70
2024/04/13 01:37:55;;;;;;;;;;;;;;;18.28;41.67;101706.34;5256394;26;95115;-70
2024/04/13 01:40:24;;;;;;;;;;;;;;;18.26;41.83;101706.63;5247515;26;99839;-78
2024/04/13 01:42:51;;;;;;;;;;;;;;;18.24;41.55;101691.66;5203219;26;96854;-78
2024/04/13 01:45:21;;;;;;;;;;;;;;;18.21;41.91;101690.31;5234289;26;95119;-70
2024/04/13 01:47:47;;;;;;;;;;;;;;;18.20;41.70;101698.81;5232405;26;95085;-70
2024/04/13 01:50:14;;;;;;;;;;;;;;;18.18;41.68;101692.81;5233698;26;94772;-70
2024/04/13 01:52:40;;;;;;;;;;;;;;;18.17;41.44;101691.19;5253636;26;94676;-77
2024/04/13 01:55:07;;;;;;;;;;;;;;;18.14;41.59;101685.19;5206361;26;95976;-78
2024/04/13 01:57:34;;;;;;;;;;;;;;;18.12;42.00;101686.59;5230228;26;95040;-70
2024/04/13 02:00:00;;;;;;;;;;;;;;;18.10;41.66;101697.78;5224303;26;94266;-70
2024/04/13 02:02:27;;;;;;;;;;;;;;;18.08;42.02;101700.00;5253486;26;97139;-79
2024/04/13 02:04:53;;;;;;;;;;;;;;;18.07;42.02;101703.00;5251961;26;94731;-77
2024/04/13 02:07:21;;;;;;;;;;;;;;;18.06;42.27;101701.38;5258931;26;95066;-78
2024/04/13 02:09:47;;;;;;;;;;;;;;;18.03;42.04;101697.31;5233416;26;95426;-70
2024/04/13 02:12:14;;;;;;;;;;;;;;;18.02;42.05;101698.41;5233982;26;95491;-78
2024/04/13 02:14:40;;;;;;;;;;;;;;;18.01;42.22;101687.81;5257466;26;94918;-77
2024/04/13 02:17:08;;;;;;;;;;;;;;;17.98;42.13;101699.28;5205013;26;94128;-77
2024/04/13 02:19:34;;;;;;;;;;;;;;;17.97;41.55;101697.66;5260445;26;95534;-77
2024/04/13 02:22:00;;;;;;;;;;;;;;;17.94;41.69;101693.59;5252849;26;94452;-77
2024/04/13 02:24:26;;;;;;;;;;;;;;;17.93;41.56;101691.97;5263696;26;94561;-77
2024/04/13 02:26:54;;;;;;;;;;;;;;;17.91;42.20;101688.69;5195749;26;95121;-70
2024/04/13 02:29:21;;;;;;;;;;;;;;;17.88;41.82;101698.28;5261882;26;94538;-70
2024/04/13 02:31:48;;;;;;;;;;;;;;;17.87;41.67;101688.44;5224257;26;95143;-77
2024/04/13 02:34:15;;;;;;;;;;;;;;;17.85;42.34;101696.13;5195405;26;98589;-77
2024/04/13 02:36:41;;;;;;;;;;;;;;;17.83;41.51;101695.59;5202202;26;94792;-76
2024/04/13 02:39:08;;;;;;;;;;;;;;;17.82;41.79;101690.44;5250798;26;94606;-77
2024/04/13 02:41:35;;;;;;;;;;;;;;;17.81;41.85;101694.25;5222851;26;95680;-70
2024/04/13 02:44:01;;;;;;;;;;;;;;;17.79;41.74;101699.97;5232100;26;94628;-69
2024/04/13 02:46:27;;;;;;;;;;;;;;;17.78;41.67;101708.47;5231346;26;94863;-77
2024/04/13 02:48:54;;;;;;;;;;;;;;;17.76;41.81;101697.00;5228867;26;95832;-70
2024/04/13 02:51:20;;;;;;;;;;;;;;;17.74;42.18;101699.19;5227063;26;95660;-69
2024/04/13 02:53:46;;;;;;;;;;;;;;;17.74;41.59;101701.91;5208842;26;94630;-77
2024/04/13 02:56:13;;;;;;;;;;;;;;;17.72;42.36;101694.00;5248340;26;94407;-78
2024/04/13 02:58:39;;;;;;;;;;;;;;;17.70;42.00;101690.78;5255921;26;95705;-77
2024/04/13 03:01:08;;;;;;;;;;;;;;;17.69;42.36;101697.31;5235270;26;95691;-70
2024/04/13 03:03:35;;;;;;;;;;;;;;;17.67;42.08;101688.59;5281690;26;94694;-70
2024/04/13 03:06:04;;;;;;;;;;;;;;;17.65;41.74;101686.19;5226816;26;95143;-77
2024/04/13 03:08:31;;;;;;;;;;;;;;;17.64;42.32;101692.75;5225172;26;95529;-69
2024/04/13 03:10:59;;;;;;;;;;;;;;;17.63;41.85;101696.53;5247930;26;97012;-77
2024/04/13 03:13:25;;;;;;;;;;;;;;;17.60;41.79;101691.66;5231482;26;97368;-70
2024/04/13 03:16:10;;;;;;;;;;;;;;;17.60;41.95;101699.81;5262040;26;95059;-79
2024/04/13 03:18:38;;;;;;;;;;;;;;;17.60;42.13;101699.00;5237857;26;94542;-70
2024/04/13 03:21:06;;;;;;;;;;;;;;;17.58;42.02;101693.84;5223388;26;96460;-69
2024/04/13 03:23:33;;;;;;;;;;;;;;;17.58;41.74;101687.59;5261837;26;95320;-70
2024/04/13 03:26:01;;;;;;;;;;;;;;;17.57;41.67;101688.72;5248214;26;94879;-77
2024/04/13 03:28:34;;;;;;;;;;;;;;;17.57;42.28;101688.72;5206625;26;94745;-69
2024/04/13 03:31:01;;;;;;;;;;;;;;;17.56;41.70;101685.13;5225483;26;94817;-77
2024/04/13 03:33:28;;;;;;;;;;;;;;;17.55;41.55;101679.97;5225834;26;95934;-77
2024/04/13 03:35:58;;;;;;;;;;;;;;;17.55;41.49;101690.88;5234354;26;94473;-77
2024/04/13 03:38:25;;;;;;;;;;;;;;;17.54;41.92;101684.63;5226495;26;95281;-69
2024/04/13 03:41:01;;;;;;;;;;;;;;;17.54;42.17;101689.28;5234431;26;94757;-69
2024/04/13 03:43:28;;;;;;;;;;;;;;;17.53;41.93;101690.38;5219220;26;94884;-70
2024/04/13 03:45:54;;;;;;;;;;;;;;;17.50;42.36;101678.13;5223549;26;94221;-77
2024/04/13 03:48:20;;;;;;;;;;;;;;;17.49;42.46;101679.22;5230353;26;95622;-69
2024/04/13 03:50:46;;;;;;;;;;;;;;;17.49;41.67;101676.50;5201381;26;95456;-70
2024/04/13 03:53:14;;;;;;;;;;;;;;;17.48;42.16;101672.13;5251440;26;94632;-77
2024/04/13 03:55:41;;;;;;;;;;;;;;;17.46;41.98;101668.88;5181304;26;95830;-69
2024/04/13 03:58:08;;;;;;;;;;;;;;;17.46;42.12;101673.53;5224832;26;96575;-69
2024/04/13 04:00:34;;;;;;;;;;;;;;;17.45;41.92;101669.16;5192766;26;96756;-77
2024/04/13 04:03:00;;;;;;;;;;;;;;;17.43;41.84;101670.25;5255077;26;100566;-77
2024/04/13 04:05:27;;;;;;;;;;;;;;;17.43;42.26;101666.72;5254023;26;95481;-77
2024/04/13 04:07:55;;;;;;;;;;;;;;;17.41;41.78;101661.56;5225909;26;95041;-69
2024/04/13 04:10:21;;;;;;;;;;;;;;;17.41;42.36;101666.22;5219447;26;94759;-77
2024/04/13 04:12:48;;;;;;;;;;;;;;;17.40;42.49;101668.09;5232354;26;97686;-77
2024/04/13 04:15:14;;;;;;;;;;;;;;;17.40;41.63;101664.56;5255808;26;94360;-69
2024/04/13 04:17:40;;;;;;;;;;;;;;;17.39;41.64;101669.19;5248860;26;94813;-77
2024/04/13 04:20:09;;;;;;;;;;;;;;;17.40;42.51;101667.28;5193862;26;94458;-77
2024/04/13 04:22:36;;;;;;;;;;;;;;;17.40;42.42;101670.81;5191031;26;94553;-77
2024/04/13 04:25:06;;;;;;;;;;;;;;;17.40;42.09;101676.28;5225846;26;94781;-69
2024/04/13 04:27:32;;;;;;;;;;;;;;;17.40;41.94;101670.81;5235108;26;96009;-69
2024/04/13 04:29:58;;;;;;;;;;;;;;;17.41;41.94;101671.66;5248771;26;94786;-76
2024/04/13 04:32:25;;;;;;;;;;;;;;;17.41;42.62;101672.47;5191813;26;95001;-69
2024/04/13 04:34:52;;;;;;;;;;;;;;;17.41;42.17;101667.03;5229674;26;95445;-68
2024/04/13 04:37:18;;;;;;;;;;;;;;;17.42;42.43;101670.56;5199934;26;94571;-69
2024/04/13 04:39:44;;;;;;;;;;;;;;;17.45;42.01;101671.88;5221403;26;95233;-69
2024/04/13 04:42:11;;;;;;;;;;;;;;;17.46;41.74;101671.63;5264143;26;96806;-69
2024/04/13 04:44:37;;;;;;;;;;;;;;;17.49;42.51;101668.31;5226605;26;94745;-77
2024/04/13 04:47:04;;;;;;;;;;;;;;;17.51;42.42;101665.31;5195180;26;95616;-69
2024/04/13 04:49:31;;;;;;;;;;;;;;;17.53;41.79;101666.66;5245055;26;96689;-69
2024/04/13 04:51:59;;;;;;;;;;;;;;;17.58;42.14;101666.59;5228657;26;96162;-77
2024/04/13 04:54:25;;;;;;;;;;;;;;;17.62;42.24;101664.94;5194998;26;95006;-69
2024/04/13 04:56:51;;;;;;;;;;;;;;;17.66;41.89;101673.34;5250580;26;98545;-77
2024/04/13 04:59:18;;;;;;;;;;;;;;;17.71;42.13;101680.66;5247557;26;94535;-69
2024/04/13 05:01:44;;;;;;;;;;;;;;;17.74;41.82;101678.19;5248043;26;94974;-69
2024/04/13 05:04:11;;;;;;;;;;;;;;;17.79;41.87;101674.63;5197918;26;94884;-69
2024/04/13 05:06:37;;;;;;;;;;;;;;;17.83;41.60;101683.88;5190694;26;95238;-77
2024/04/13 05:09:05;;;;;;;;;;;;;;;17.89;41.85;101691.72;5250533;26;94768;-77
2024/04/13 05:11:33;;;;;;;;;;;;;;;17.94;41.40;101685.41;5243661;26;99583;-69
2024/04/13 05:14:01;;;;;;;;;;;;;;;18.00;42.15;101691.59;5200519;26;95299;-77
2024/04/13 05:16:27;;;;;;;;;;;;;;;18.04;41.73;101688.03;5220837;26;103681;-69
2024/04/13 05:18:53;;;;;;;;;;;;;;;18.12;41.93;101697.50;5229406;26;95840;-68
2024/04/13 05:21:20;;;;;;;;;;;;;;;18.18;41.79;101695.53;5245731;26;94867;-69
2024/04/13 05:23:47;;;;;;;;;;;;;;;18.24;41.48;101700.66;5250184;26;95615;-69
2024/04/13 05:26:14;;;;;;;;;;;;;;;18.29;41.34;101695.13;5223875;26;96134;-77
2024/04/13 05:28:40;;;;;;;;;;;;;;;18.37;41.65;101693.69;5227089;26;94828;-77
2024/04/13 05:31:09;;;;;;;;;;;;;;;18.43;41.72;101694.44;5257781;26;95287;-69
2024/04/13 05:33:36;;;;;;;;;;;;;;;18.49;41.79;101701.47;5229529;26;95652;-77
2024/04/13 05:36:02;;;;;;;;;;;;;;;18.56;41.61;101701.94;5228996;26;98506;-69
2024/04/13 05:38:32;;;;;;;;;;;;;;;18.60;41.58;101706.53;5215757;26;94997;-77
2024/04/13 05:40:59;;;;;;;;;;;;;;;18.68;41.78;101713.25;5247513;26;94689;-69
2024/04/13 05:43:25;;;;;;;;;;;;;;;18.72;41.58;101703.41;5221454;26;95064;-77
2024/04/13 05:45:52;;;;;;;;;;;;;;;18.75;41.64;101699.28;5250496;26;96044;-69
2024/04/13 05:48:21;;;;;;;;;;;;;;;18.78;41.46;101702.22;5222301;26;94408;-78
2024/04/13 05:50:57;;;;;;;;;;;;;;;18.82;41.78;101711.47;5246450;26;97035;-70
2024/04/13 05:53:24;;;;;;;;;;;;;;;18.89;41.45;101722.03;5222671;26;94543;-77
2024/04/13 05:55:50;;;;;;;;;;;;;;;18.95;41.75;101720.06;5248158;26;94683;-69
2024/04/13 05:58:17;;;;;;;;;;;;;;;19.03;41.50;101727.59;5274879;26;94781;-76
2024/04/13 06:00:46;;;;;;;;;;;;;;;19.11;41.60;101732.41;5244461;26;94215;-76
2024/04/13 06:03:12;;;;;;;;;;;;;;;19.18;41.97;101721.09;5228263;26;94945;-69
2024/04/13 06:05:40;;;;;;;;;;;;;;;19.25;41.48;101727.81;5244270;26;95235;-69
2024/04/13 06:08:09;;;;;;;;;;;;;;;19.27;41.84;101728.34;5225648;26;94672;-69
2024/04/13 06:10:37;;;;;;;;;;;;;;;19.35;41.47;101721.41;5200268;26;94422;-69
2024/04/13 06:13:04;;;;;;;;;;;;;;;19.45;41.21;101731.34;5223920;26;94656;-69
2024/04/13 06:15:30;;;;;;;;;;;;;;;19.53;41.80;101733.41;5224031;26;94262;-69
2024/04/13 06:17:57;;;;;;;;;;;;;;;19.60;41.24;101748.34;5193811;26;94738;-70
2024/04/13 06:20:26;;;;;;;;;;;;;;;19.69;41.75;101734.84;5246244;26;95193;-77
2024/04/13 06:22:52;;;;;;;;;;;;;;;19.76;41.50;101731.72;5246955;26;94671;-77
2024/04/13 06:25:18;;;;;;;;;;;;;;;19.89;41.16;101741.09;5249277;26;96131;-77
2024/04/13 06:27:45;;;;;;;;;;;;;;;19.99;41.41;101738.97;5246952;26;95042;-77
2024/04/13 06:30:13;;;;;;;;;;;;;;;20.10;41.63;101732.22;5188254;26;94978;-69
2024/04/13 06:32:40;;;;;;;;;;;;;;;20.22;41.38;101734.47;5229527;26;94648;-77
2024/04/13 06:35:09;;;;;;;;;;;;;;;20.33;41.06;101733.19;5191500;26;94785;-78
2024/04/13 06:37:35;;;;;;;;;;;;;;;20.43;41.73;101736.81;5250968;26;94678;-77
2024/04/13 06:40:04;;;;;;;;;;;;;;;20.46;41.54;101737.03;5229986;26;94324;-76
2024/04/13 06:42:30;;;;;;;;;;;;;;;20.55;40.49;101731.69;5254822;26;95081;-69
2024/04/13 06:44:57;;;;;;;;;;;;;;;20.67;40.92;101739.41;5256594;26;94231;-69
2024/04/13 06:47:23;;;;;;;;;;;;;;;20.83;40.88;101735.25;5191015;26;96471;-77
2024/04/13 06:49:49;;;;;;;;;;;;;;;20.98;41.27;101737.63;5243095;26;95079;-77
2024/04/13 06:52:15;;;;;;;;;;;;;;;21.32;41.05;101733.63;5225299;26;95758;-77
2024/04/13 06:54:41;;;;;;;;;;;;;;;21.54;40.13;101730.13;5256022;26;96155;-77
2024/04/13 06:57:08;;;;;;;;;;;;;;;21.77;40.96;101731.75;5250776;26;94546;-69
2024/04/13 06:59:34;;;;;;;;;;;;;;;21.95;40.00;101724.41;5219481;26;95507;-77
2024/04/13 07:02:00;;;;;;;;;;;;;;;22.06;39.98;101725.78;5225448;26;94823;-77
2024/04/13 07:04:27;;;;;;;;;;;;;;;22.18;40.19;101724.41;5215516;26;94821;-76
2024/04/13 07:06:53;;;;;;;;;;;;;;;22.29;41.16;101736.75;5249541;26;95223;-77
2024/04/13 07:09:20;;;;;;;;;;;;;;;22.44;40.53;101730.84;5198291;26;94870;-77
2024/04/13 07:11:46;;;;;;;;;;;;;;;22.70;40.33;101732.84;5189150;26;94435;-69
2024/04/13 07:14:13;;;;;;;;;;;;;;;22.87;40.36;101723.84;5250259;26;94435;-77
2024/04/13 07:16:40;;;;;;;;;;;;;;;23.02;40.28;101720.66;5234900;26;94774;-77
2024/04/13 07:19:06;;;;;;;;;;;;;;;23.21;40.43;101718.41;5225005;26;95772;-77
2024/04/13 07:21:33;;;;;;;;;;;;;;;23.45;39.96;101722.63;5255923;26;94935;-69
2024/04/13 07:24:00;;;;;;;;;;;;;;;23.51;40.53;101705.63;5272850;26;97237;-77
2024/04/13 07:26:26;;;;;;;;;;;;;;;23.86;40.20;101716.63;5199987;26;95935;-76
2024/04/13 07:28:54;;;;;;;;;;;;;;;24.15;40.20;101710.38;5224749;26;95247;-69
2024/04/13 07:31:21;;;;;;;;;;;;;;;24.41;39.73;101696.53;5193911;26;96657;-77
2024/04/13 07:33:47;;;;;;;;;;;;;;;24.62;40.18;101698.53;5228460;26;94836;-70
2024/04/13 07:36:13;;;;;;;;;;;;;;;24.92;39.93;101694.59;5222862;26;94451;-70
2024/04/13 07:38:40;;;;;;;;;;;;;;;25.16;39.26;101691.19;5200690;26;96222;-70
2024/04/13 07:41:06;;;;;;;;;;;;;;;25.58;38.60;101687.56;5249625;26;98247;-77
2024/04/13 07:43:32;;;;;;;;;;;;;;;25.90;39.03;101697.03;5215311;26;94791;-77
2024/04/13 07:45:59;;;;;;;;;;;;;;;26.18;39.67;101699.94;5187086;26;94494;-77
2024/04/13 07:48:25;;;;;;;;;;;;;;;26.30;39.49;101702.72;5243253;26;94734;-77
2024/04/13 07:50:51;;;;;;;;;;;;;;;26.67;38.55;101695.22;5201851;26;94576;-70
2024/04/13 07:53:17;;;;;;;;;;;;;;;27.00;38.78;101687.91;5252242;26;94800;-70
2024/04/13 07:55:45;;;;;;;;;;;;;;;27.43;38.82;101681.66;5268710;26;96141;-77
2024/04/13 07:58:11;;;;;;;;;;;;;;;27.94;38.48;101681.06;5239571;26;96545;-70
2024/04/13 08:00:39;;;;;;;;;;;;;;;28.46;38.20;101686.34;5190016;26;94673;-77
2024/04/13 08:03:06;;;;;;;;;;;;;;;29.08;37.82;101690.16;5241168;26;94259;-70
2024/04/13 08:05:32;;;;;;;;;;;;;;;29.61;37.02;101691.59;5230184;26;94670;-77
2024/04/13 08:07:58;;;;;;;;;;;;;;;30.32;37.85;101676.16;5242956;26;94196;-77
2024/04/13 08:10:25;;;;;;;;;;;;;;;31.18;37.13;101669.03;5219067;26;94431;-70
2024/04/13 08:12:51;;;;;;;;;;;;;;;31.89;36.64;101678.16;5249399;26;94530;-70
2024/04/13 08:15:17;;;;;;;;;;;;;;;32.78;36.39;101668.81;5212854;26;94592;-77
2024/04/13 08:17:43;;;;;;;;;;;;;;;32.94;36.55;101675.75;5195709;26;94879;-77
2024/04/13 08:20:09;;;;;;;;;;;;;;;32.93;37.05;101685.31;5250106;26;94979;-71
2024/04/13 08:22:36;;;;;;;;;;;;;;;33.72;36.59;101682.78;5248941;26;94456;-71
2024/04/13 08:25:02;;;;;;;;;;;;;;;34.60;36.70;101663.56;5223116;26;94423;-72
2024/04/13 08:27:31;;;;;;;;;;;;;;;34.73;36.90;101661.91;5220547;26;95067;-72
2024/04/13 08:29:57;;;;;;;;;;;;;;;35.36;36.61;101654.44;5189336;26;94321;-78
2024/04/13 08:32:24;;;;;;;;;;;;;;;35.99;35.85;101642.41;5189447;26;95551;-72
2024/04/13 08:34:52;;;;;;;;;;;;;;;36.56;35.48;101645.44;5138615;26;95963;-78
2024/04/13 08:37:18;;;;;;;;;;;;;;;37.03;35.70;101648.50;5243007;26;95179;-78
2024/04/13 08:39:44;;;;;;;;;;;;;;;37.44;35.83;101641.09;5257401;26;94552;-72
2024/04/13 08:42:11;;;;;;;;;;;;;;;37.83;35.42;101637.66;5242897;26;94245;-78
2024/04/13 08:44:40;;;;;;;;;;;;;;;38.25;35.35;101641.75;5195398;26;94709;-78
2024/04/13 08:47:07;;;;;;;;;;;;;;;38.72;35.43;101638.81;5247525;26;94857;-78
2024/04/13 08:49:39;;;;;;;;;;;;;;;39.29;35.04;101631.16;5249131;26;94618;-72
2024/04/13 08:52:06;;;;;;;;;;;;;;;39.63;35.23;101638.41;5193908;26;98015;-77
2024/04/13 08:54:32;;;;;;;;;;;;;;;40.09;34.90;101627.97;5226506;26;94272;-72
2024/04/13 08:57:01;;;;;;;;;;;;;;;40.41;34.88;101618.66;5221781;26;94652;-72
2024/04/13 08:59:28;;;;;;;;;;;;;;;40.71;35.36;101632.28;5251037;26;95578;-79
2024/04/13 09:01:57;;;;;;;;;;;;;;;41.05;34.93;101641.41;5176335;26;94842;-79
2024/04/13 09:04:23;;;;;;;;;;;;;;;41.43;34.66;101632.97;5225926;26;95007;-77
2024/04/13 09:06:52;;;;;;;;;;;;;;;41.77;34.42;101622.91;5246908;26;95070;-76
2024/04/13 09:09:19;;;;;;;;;;;;;;;42.10;34.59;101614.91;5245432;26;94901;-76
2024/04/13 09:11:46;;;;;;;;;;;;;;;42.37;33.92;101628.53;5247185;26;95350;-77
2024/04/13 09:14:12;;;;;;;;;;;;;;;42.35;34.67;101616.84;5247186;26;94222;-77
2024/04/13 09:16:45;;;;;;;;;;;;;;;42.72;34.60;101617.88;5242276;26;94791;-72
2024/04/13 09:19:13;;;;;;;;;;;;;;;42.85;34.32;101623.47;5268491;26;96988;-78
2024/04/13 09:21:43;;;;;;;;;;;;;;;41.83;35.23;101615.47;5217811;26;94945;-71
2024/04/13 09:24:11;;;;;;;;;;;;;;;41.42;35.25;101606.69;5219485;26;94561;-72
2024/04/13 09:26:45;;;;;;;;;;;;;;;41.29;35.15;101622.88;5256671;26;97498;-72
2024/04/13 09:29:24;;;;;;;;;;;;;;;42.09;34.94;101605.66;5230031;26;95421;-79
2024/04/13 09:31:50;;;;;;;;;;;;;;;41.58;35.20;101602.97;5191563;26;94977;-73
2024/04/13 09:34:19;;;;;;;;;;;;;;;41.35;35.11;101600.47;5245377;26;94525;-79
2024/04/13 09:36:49;;;;;;;;;;;;;;;41.25;35.66;101608.06;5228363;26;95147;-72
2024/04/13 09:39:23;;;;;;;;;;;;;;;41.40;35.42;101608.41;5223268;26;94858;-79
2024/04/13 09:41:51;;;;;;;;;;;;;;;40.20;36.79;101588.97;5249610;26;95509;-72
2024/04/13 09:44:30;;;;;;;;;;;;;;;40.38;36.42;101594.13;5250549;26;94613;-72
2024/04/13 09:46:58;;;;;;;;;;;;;;;41.33;35.60;101586.78;5243139;26;95670;-79
2024/04/13 09:49:26;;;;;;;;;;;;;;;40.88;35.79;101589.84;5184052;26;100889;-72
2024/04/13 09:51:54;;;;;;;;;;;;;;;41.00;35.39;101580.59;5194307;26;94522;-78
2024/04/13 09:54:26;;;;;;;;;;;;;;;40.37;35.49;101575.63;5185881;26;94567;-78
2024/04/13 09:56:52;;;;;;;;;;;;;;;40.19;35.89;101570.47;5165571;26;95216;-79
2024/04/13 09:59:20;;;;;;;;;;;;;;;40.13;36.11;101575.09;5223429;26;94217;-72
2024/04/13 10:01:47;;;;;;;;;;;;;;;39.38;36.68;101577.81;5243936;26;94247;-78
2024/04/13 10:04:14;;;;;;;;;;;;;;;39.90;35.74;101568.44;5191874;26;94586;-73
2024/04/13 10:06:44;;;;;;;;;;;;;;;40.71;35.55;101570.16;5220672;26;94275;-72
2024/04/13 10:09:14;;;;;;;;;;;;;;;41.00;35.51;101565.69;5200019;26;94581;-73
2024/04/13 10:11:43;;;;;;;;;;;;;;;41.43;34.53;101570.75;5226372;26;94824;-74
2024/04/13 10:14:10;;;;;;;;;;;;;;;42.28;33.75;101569.78;5244480;26;95535;-79
2024/04/13 10:16:43;;;;;;;;;;;;;;;41.53;35.11;101566.75;5199500;26;94805;-79
2024/04/13 10:19:11;;;;;;;;;;;;;;;41.94;34.54;101553.63;5225270;26;96560;-79
2024/04/13 10:21:38;;;;;;;;;;;;;;;42.64;33.91;101552.22;5246467;26;95734;-79
2024/04/13 10:24:04;;;;;;;;;;;;;;;42.94;34.08;101555.50;5221960;26;94785;-74
2024/04/13 10:26:31;;;;;;;;;;;;;;;41.88;35.05;101553.41;5268235;26;95437;-80
2024/04/13 10:29:02;;;;;;;;;;;;;;;41.07;35.80;101545.66;5191305;26;94857;-79
2024/04/13 10:31:33;;;;;;;;;;;;;;;42.25;34.61;101545.22;5213241;26;95353;-79
2024/04/13 10:34:03;;;;;;;;;;;;;;;42.31;34.15;101537.69;5224836;26;96026;-79
2024/04/13 10:36:31;;;;;;;;;;;;;;;40.12;35.96;101531.94;5229386;26;95187;-72
2024/04/13 10:38:59;;;;;;;;;;;;;;;41.54;34.63;101530.78;5227655;26;95977;-78
2024/04/13 10:41:38;;;;;;;;;;;;;;;41.90;34.46;101516.97;5224028;26;95095;-80
2024/04/13 10:44:05;;;;;;;;;;;;;;;41.89;35.10;101523.06;5248897;26;94863;-80
2024/04/13 10:46:35;;;;;;;;;;;;;;;41.21;35.14;101517.72;5274307;26;94526;-80
2024/04/13 10:49:03;;;;;;;;;;;;;;;42.21;34.26;101524.72;5242868;26;94781;-73
2024/04/13 10:51:30;;;;;;;;;;;;;;;42.56;34.35;101521.78;5194951;26;94545;-74
2024/04/13 10:53:57;;;;;;;;;;;;;;;42.85;33.88;101521.47;5182801;26;94770;-74
2024/04/13 10:56:26;;;;;;;;;;;;;;;43.10;33.96;101517.63;5173756;26;95573;-80
2024/04/13 10:58:54;;;;;;;;;;;;;;;43.14;34.08;101501.25;5191097;26;94731;-74
2024/04/13 11:01:21;;;;;;;;;;;;;;;43.16;34.27;101510.09;5249860;26;95364;-73
2024/04/13 11:03:48;;;;;;;;;;;;;;;43.13;33.82;101520.31;5228989;26;95402;-80
2024/04/13 11:06:16;;;;;;;;;;;;;;;42.86;33.99;101511.69;5198330;26;94384;-74
2024/04/13 11:08:44;;;;;;;;;;;;;;;42.27;34.37;101493.78;5258330;26;94658;-75
2024/04/13 11:11:13;;;;;;;;;;;;;;;42.03;34.85;101499.91;5219390;26;95111;-79
2024/04/13 11:13:40;;;;;;;;;;;;;;;41.18;35.66;101510.13;5245975;26;95130;-73
2024/04/13 11:16:08;;;;;;;;;;;;;;;41.42;34.96;101502.06;5226841;26;95703;-79
2024/04/13 11:18:36;;;;;;;;;;;;;;;40.57;35.57;101494.34;5226559;26;95614;-73
2024/04/13 11:21:07;;;;;;;;;;;;;;;40.90;35.69;101500.53;5277724;26;96132;-73
2024/04/13 11:23:34;;;;;;;;;;;;;;;40.12;36.05;101483.97;5228564;26;96951;-73
2024/04/13 11:26:02;;;;;;;;;;;;;;;39.78;35.71;101481.72;5247614;26;94717;-74
2024/04/13 11:28:29;;;;;;;;;;;;;;;39.16;36.40;101476.06;5192561;26;94983;-80
2024/04/13 11:30:56;;;;;;;;;;;;;;;38.71;36.49;101470.28;5218964;26;95184;-79
2024/04/13 11:33:25;;;;;;;;;;;;;;;38.41;36.67;101468.56;5192672;26;96343;-73
2024/04/13 11:35:57;;;;;;;;;;;;;;;38.57;36.46;101462.19;5231993;26;94287;-80
2024/04/13 11:38:43;;;;;;;;;;;;;;;39.11;35.89;101467.34;5199267;26;96223;-73
2024/04/13 11:41:10;;;;;;;;;;;;;;;38.58;36.42;101467.38;5255580;26;96439;-72
2024/04/13 11:43:41;;;;;;;;;;;;;;;38.23;36.34;101472.53;5217419;26;94761;-80
2024/04/13 11:46:08;;;;;;;;;;;;;;;38.10;36.03;101465.97;5225624;26;94190;-79
2024/04/13 11:48:35;;;;;;;;;;;;;;;38.22;36.34;101458.91;5220840;26;96231;-78
2024/04/13 11:51:06;;;;;;;;;;;;;;;38.45;36.37;101450.38;5255013;26;94941;-79
2024/04/13 11:53:36;;;;;;;;;;;;;;;38.42;36.01;101458.91;5224310;26;94604;-79
2024/04/13 11:56:07;;;;;;;;;;;;;;;38.57;35.68;101457.34;5216869;26;94699;-73
2024/04/13 11:58:35;;;;;;;;;;;;;;;38.74;35.62;101455.31;5226418;26;94616;-73
2024/04/13 12:01:03;;;;;;;;;;;;;;;38.73;35.65;101450.94;5272087;26;94645;-78
2024/04/13 12:03:30;;;;;;;;;;;;;;;38.82;35.54;101439.88;5256549;26;94615;-78
2024/04/13 12:06:01;;;;;;;;;;;;;;;38.47;36.22;101431.00;5217058;26;95638;-79
2024/04/13 12:08:27;;;;;;;;;;;;;;;38.00;36.14;101442.47;5259301;26;94626;-73
2024/04/13 12:10:57;;;;;;;;;;;;;;;38.25;35.60;101441.16;5195455;26;94898;-79
2024/04/13 12:13:23;;;;;;;;;;;;;;;37.93;36.12;101433.41;5220157;26;95768;-73
2024/04/13 12:15:57;;;;;;;;;;;;;;;38.15;35.63;101423.25;5250473;26;97709;-79
2024/04/13 12:18:24;;;;;;;;;;;;;;;38.07;35.75;101422.63;5244563;26;95088;-78
2024/04/13 12:20:51;;;;;;;;;;;;;;;38.21;35.63;101420.75;5223413;26;95210;-73
2024/04/13 12:23:17;;;;;;;;;;;;;;;38.20;35.76;101419.13;5224804;26;94762;-73
2024/04/13 12:25:43;;;;;;;;;;;;;;;37.82;36.17;101408.28;5221199;26;95380;-79
2024/04/13 12:28:09;;;;;;;;;;;;;;;37.87;35.96;101398.53;5198171;26;94905;-79
2024/04/13 12:30:37;;;;;;;;;;;;;;;37.97;35.71;101394.75;5198382;26;94409;-79
2024/04/13 12:33:03;;;;;;;;;;;;;;;38.01;35.76;101401.09;5232806;26;94545;-78
2024/04/13 12:35:29;;;;;;;;;;;;;;;37.88;35.86;101386.09;5228972;26;95938;-74
2024/04/13 12:37:57;;;;;;;;;;;;;;;37.86;35.96;101382.91;5222793;26;95995;-74